Time;durP1;ratioP1;P1;durP2;ratioP2;P2;SDS_P1;SDS_P2;PMS_P1;PMS_P2;Temp;Humidity;BMP_temperature;BMP_pressure;BME280_temperature;BME280_humidity;BME280_pressure;Samples;Min_cycle;Max_cycle;Signal;HPM_P1;HPM_P2
2022/07/22 00:01:31;;;;;;;12.10;9.63;;;16.40;99.90;;;;;;5095998;28;20185;-71
2022/07/22 00:03:57;;;;;;;11.48;8.88;;;16.40;99.90;;;;;;5096059;28;20222;-71
2022/07/22 00:06:23;;;;;;;12.32;8.80;;;16.40;99.90;;;;;;5094594;28;20183;-71
2022/07/22 00:08:48;;;;;;;13.85;9.15;;;16.40;99.90;;;;;;5094678;28;20267;-71
2022/07/22 00:11:14;;;;;;;9.23;8.05;;;16.40;99.90;;;;;;5095825;28;20188;-71
2022/07/22 00:13:40;;;;;;;9.52;8.13;;;16.40;99.90;;;;;;5095815;28;20227;-71
2022/07/22 00:16:06;;;;;;;9.60;7.45;;;16.40;99.90;;;;;;5094610;28;20225;-71
2022/07/22 00:18:32;;;;;;;8.15;7.32;;;16.40;99.90;;;;;;5095680;28;20708;-71
2022/07/22 00:20:58;;;;;;;8.15;6.57;;;16.40;99.90;;;;;;5095490;28;20177;-71
2022/07/22 00:23:24;;;;;;;6.55;5.72;;;16.40;99.90;;;;;;5103653;28;20195;-71
2022/07/22 00:25:49;;;;;;;6.63;5.18;;;16.40;99.90;;;;;;5115999;28;20175;-71
2022/07/22 00:28:15;;;;;;;6.72;5.00;;;16.30;99.90;;;;;;5115919;28;20168;-71
2022/07/22 00:30:41;;;;;;;7.50;4.93;;;16.30;99.90;;;;;;5115856;28;20196;-71
2022/07/22 00:33:06;;;;;;;6.38;4.68;;;16.30;99.90;;;;;;5115769;28;20631;-71
2022/07/22 00:35:32;;;;;;;7.45;4.85;;;16.30;99.90;;;;;;5115852;28;20673;-71
2022/07/22 00:37:58;;;;;;;7.63;4.32;;;16.30;99.90;;;;;;5115593;28;20200;-71
2022/07/22 00:40:24;;;;;;;5.30;3.95;;;16.30;99.90;;;;;;5115656;28;20251;-71
2022/07/22 00:42:50;;;;;;;5.72;3.85;;;16.30;99.90;;;;;;5115707;28;20308;-71
2022/07/22 00:45:16;;;;;;;5.35;3.80;;;16.30;99.90;;;;;;5115578;28;20173;-71
2022/07/22 00:47:41;;;;;;;6.05;4.00;;;16.30;99.90;;;;;;5115561;28;20171;-71
2022/07/22 00:50:08;;;;;;;5.85;3.60;;;16.30;99.90;;;;;;5114240;28;20176;-71
2022/07/22 00:52:34;;;;;;;7.00;4.50;;;16.30;99.90;;;;;;5114070;28;20223;-71
2022/07/22 00:55:01;;;;;;;7.63;3.95;;;16.30;99.90;;;;;;5095410;28;20664;-71
2022/07/22 00:57:27;;;;;;;6.10;4.20;;;16.20;99.90;;;;;;5095003;28;20193;-71
2022/07/22 00:59:53;;;;;;;6.07;4.10;;;16.20;99.90;;;;;;5095245;28;20161;-71
2022/07/22 01:02:19;;;;;;;5.53;4.22;;;16.20;99.90;;;;;;5094836;28;20189;-71
2022/07/22 01:04:45;;;;;;;6.45;4.57;;;16.20;99.90;;;;;;5095428;28;20188;-71
2022/07/22 01:07:10;;;;;;;10.07;5.45;;;16.20;99.90;;;;;;5094598;28;20252;-71
2022/07/22 01:09:37;;;;;;;8.27;4.85;;;16.20;99.90;;;;;;5094822;28;20697;-71
2022/07/22 01:12:03;;;;;;;6.18;5.10;;;16.20;99.90;;;;;;5095349;28;20730;-71
2022/07/22 01:14:29;;;;;;;7.25;5.13;;;16.20;99.90;;;;;;5095107;28;20220;-71
2022/07/22 01:16:55;;;;;;;7.03;5.18;;;16.20;99.90;;;;;;5094929;28;20197;-71
2022/07/22 01:19:21;;;;;;;8.80;4.72;;;16.20;99.90;;;;;;5094907;28;20188;-71
2022/07/22 01:21:47;;;;;;;9.07;4.97;;;16.20;99.90;;;;;;5094261;28;20188;-71
2022/07/22 01:24:13;;;;;;;6.10;4.97;;;16.20;99.90;;;;;;5094497;28;20177;-71
2022/07/22 01:26:38;;;;;;;10.02;4.55;;;16.20;99.90;;;;;;5094466;28;20170;-71
2022/07/22 01:29:04;;;;;;;8.50;5.43;;;16.20;99.90;;;;;;5094658;28;20169;-71
2022/07/22 01:31:30;;;;;;;8.60;4.88;;;16.10;99.90;;;;;;5094801;28;20271;-72
2022/07/22 01:33:56;;;;;;;7.43;4.68;;;16.20;99.90;;;;;;5094360;28;20173;-71
2022/07/22 01:36:22;;;;;;;9.85;4.28;;;16.10;99.90;;;;;;5094254;28;20172;-70
2022/07/22 01:38:48;;;;;;;7.60;4.20;;;16.10;99.90;;;;;;5094117;28;20261;-70
2022/07/22 01:41:14;;;;;;;7.55;4.38;;;16.10;99.90;;;;;;5094527;28;20173;-71
2022/07/22 01:43:40;;;;;;;5.93;4.07;;;16.10;99.90;;;;;;5094272;28;20173;-71
2022/07/22 01:46:05;;;;;;;7.75;4.03;;;16.00;99.90;;;;;;5094394;28;20190;-71
2022/07/22 01:48:32;;;;;;;5.68;4.32;;;16.00;99.90;;;;;;5094136;28;20176;-71
2022/07/22 01:50:59;;;;;;;6.43;4.30;;;16.00;99.90;;;;;;5094147;28;20181;-70
2022/07/22 01:53:25;;;;;;;4.45;3.95;;;16.00;99.90;;;;;;5093868;28;20215;-70
2022/07/22 01:55:52;;;;;;;8.20;4.72;;;15.90;99.90;;;;;;5092870;28;20220;-71
2022/07/22 01:58:18;;;;;;;7.35;4.28;;;15.90;99.90;;;;;;5092682;28;20250;-71
2022/07/22 02:00:44;;;;;;;9.57;5.03;;;15.90;99.90;;;;;;5093974;28;20541;-71
2022/07/22 02:03:10;;;;;;;5.63;4.82;;;15.90;99.90;;;;;;5093900;28;20196;-71
2022/07/22 02:05:37;;;;;;;7.30;4.47;;;15.90;99.90;;;;;;5094299;28;20161;-71
2022/07/22 02:08:09;;;;;;;5.80;4.70;;;15.90;99.90;;;;;;5092313;28;20215;-71
2022/07/22 02:10:35;;;;;;;12.88;5.65;;;15.90;99.90;;;;;;5092693;28;20244;-71
2022/07/22 02:13:02;;;;;;;7.43;4.82;;;15.90;99.90;;;;;;5092027;28;20292;-71
2022/07/22 02:15:28;;;;;;;8.50;5.10;;;15.90;99.90;;;;;;5092504;28;20742;-71
2022/07/22 02:17:55;;;;;;;6.82;4.85;;;15.90;99.90;;;;;;5093844;28;20212;-71
2022/07/22 02:20:21;;;;;;;10.32;6.60;;;15.90;99.90;;;;;;5093782;28;20619;-71
2022/07/22 02:22:47;;;;;;;9.95;7.38;;;15.90;99.90;;;;;;5093658;28;20212;-70
2022/07/22 02:25:13;;;;;;;11.45;7.20;;;15.90;99.90;;;;;;5093772;28;20169;-71
2022/07/22 02:27:40;;;;;;;10.02;7.32;;;15.90;99.90;;;;;;5094361;28;20180;-71
2022/07/22 02:30:07;;;;;;;9.60;7.00;;;15.90;99.90;;;;;;5094073;28;20177;-71
2022/07/22 02:32:33;;;;;;;10.27;8.00;;;15.90;99.90;;;;;;5094485;28;20188;-71
2022/07/22 02:34:59;;;;;;;12.45;7.80;;;15.90;99.90;;;;;;5094514;28;20169;-71
2022/07/22 02:37:25;;;;;;;10.98;7.88;;;15.90;99.90;;;;;;5094034;28;20333;-71
2022/07/22 02:39:51;;;;;;;13.90;8.40;;;15.90;99.90;;;;;;5094416;28;20205;-71
2022/07/22 02:42:17;;;;;;;11.43;8.48;;;15.90;99.90;;;;;;5094133;28;20189;-71
2022/07/22 02:44:42;;;;;;;15.43;9.13;;;15.90;99.90;;;;;;5094158;28;20586;-71
2022/07/22 02:47:08;;;;;;;12.48;9.02;;;15.90;99.90;;;;;;5094301;28;20188;-72
2022/07/22 02:49:34;;;;;;;11.75;8.80;;;15.90;99.90;;;;;;5094388;28;20173;-71
2022/07/22 02:52:00;;;;;;;14.52;9.82;;;15.90;99.90;;;;;;5093830;28;20200;-71
2022/07/22 02:54:26;;;;;;;16.98;11.10;;;15.90;99.90;;;;;;5093702;28;20702;-71
2022/07/22 02:56:52;;;;;;;14.02;11.05;;;15.90;99.90;;;;;;5093473;28;20205;-71
2022/07/22 02:59:17;;;;;;;16.40;11.57;;;15.90;99.90;;;;;;5093387;28;20174;-71
2022/07/22 03:01:44;;;;;;;14.80;11.60;;;15.80;99.90;;;;;;5092746;28;20197;-71
2022/07/22 03:04:10;;;;;;;14.10;10.98;;;15.80;99.90;;;;;;5093793;28;20169;-68
2022/07/22 03:06:35;;;;;;;16.98;11.40;;;15.90;99.90;;;;;;5093133;28;20176;-68
2022/07/22 03:09:01;;;;;;;18.08;11.35;;;15.90;99.90;;;;;;5093114;28;20502;-68
2022/07/22 03:11:27;;;;;;;14.25;9.80;;;15.90;99.90;;;;;;5093050;28;20193;-68
2022/07/22 03:13:52;;;;;;;15.95;11.10;;;15.90;99.90;;;;;;5093464;28;20169;-68
2022/07/22 03:16:18;;;;;;;17.05;11.70;;;16.00;99.90;;;;;;5093615;28;20584;-68
2022/07/22 03:18:44;;;;;;;19.10;12.00;;;16.00;99.90;;;;;;5093019;28;20670;-68
2022/07/22 03:21:10;;;;;;;20.77;12.95;;;16.00;99.90;;;;;;5092731;28;20226;-69
2022/07/22 03:23:35;;;;;;;15.32;11.25;;;16.00;99.90;;;;;;5091830;28;20196;-68
2022/07/22 03:26:01;;;;;;;17.33;11.02;;;16.00;99.90;;;;;;5095411;28;20166;-71
2022/07/22 03:28:27;;;;;;;14.90;11.13;;;15.90;99.90;;;;;;5096932;28;20169;-71
2022/07/22 03:30:53;;;;;;;18.58;11.25;;;15.90;99.90;;;;;;5095545;28;20544;-71
2022/07/22 03:33:19;;;;;;;14.48;10.15;;;15.90;99.90;;;;;;5097076;28;20575;-71
2022/07/22 03:35:45;;;;;;;11.43;9.23;;;15.80;99.90;;;;;;5096975;28;20251;-71
2022/07/22 03:38:11;;;;;;;12.05;8.65;;;15.80;99.90;;;;;;5095061;28;20346;-70
2022/07/22 03:40:36;;;;;;;13.13;8.35;;;15.80;99.90;;;;;;5096532;28;20248;-71
2022/07/22 03:43:02;;;;;;;8.60;6.60;;;15.80;99.90;;;;;;5096599;28;20193;-71
2022/07/22 03:45:28;;;;;;;11.18;6.70;;;15.90;99.90;;;;;;5096401;28;20580;-71
2022/07/22 03:47:54;;;;;;;8.10;5.97;;;15.90;99.90;;;;;;5096338;28;20174;-71
2022/07/22 03:50:20;;;;;;;9.73;5.45;;;15.80;99.90;;;;;;5096337;28;20553;-70
2022/07/22 03:52:46;;;;;;;7.05;5.13;;;15.80;99.90;;;;;;5095977;28;20216;-70
2022/07/22 03:55:12;;;;;;;11.18;5.70;;;15.70;99.90;;;;;;5096764;28;20165;-70
2022/07/22 03:57:38;;;;;;;8.77;5.22;;;15.70;99.90;;;;;;5094950;28;20201;-71
2022/07/22 04:00:06;;;;;;;12.07;5.78;;;15.70;99.90;;;;;;5096206;28;20512;-70
2022/07/22 04:02:31;;;;;;;9.27;5.53;;;15.70;99.90;;;;;;5096096;28;20197;-71
2022/07/22 04:04:57;;;;;;;10.65;5.15;;;15.70;99.90;;;;;;5094833;28;20180;-71
2022/07/22 04:07:23;;;;;;;8.85;5.40;;;15.70;99.90;;;;;;5096127;28;20526;-70
2022/07/22 04:09:49;;;;;;;9.98;5.13;;;15.70;99.90;;;;;;5094672;28;20653;-71
2022/07/22 04:12:15;;;;;;;5.80;4.93;;;15.80;99.90;;;;;;5095991;28;20200;-71
2022/07/22 04:14:40;;;;;;;7.43;5.53;;;15.80;99.90;;;;;;5095809;28;20177;-70
2022/07/22 04:17:06;;;;;;;9.95;5.28;;;15.80;99.90;;;;;;5095679;28;20680;-72
2022/07/22 04:19:32;;;;;;;11.10;5.70;;;15.80;99.90;;;;;;5095683;28;20181;-70
2022/07/22 04:21:57;;;;;;;7.47;5.35;;;15.80;99.90;;;;;;5095614;28;20197;-71
2022/07/22 04:24:23;;;;;;;8.85;5.75;;;15.80;99.90;;;;;;5095555;28;20177;-70
2022/07/22 04:26:49;;;;;;;10.93;6.43;;;15.80;99.90;;;;;;5095709;28;20175;-70
2022/07/22 04:29:15;;;;;;;9.20;6.07;;;15.80;99.90;;;;;;5095975;28;20212;-70
2022/07/22 04:31:40;;;;;;;11.40;6.70;;;15.80;99.90;;;;;;5095487;28;20598;-71
2022/07/22 04:34:06;;;;;;;13.45;6.78;;;15.80;99.90;;;;;;5094206;28;20706;-71
2022/07/22 04:36:32;;;;;;;13.05;7.50;;;15.80;99.90;;;;;;5093865;28;20205;-70
2022/07/22 04:38:58;;;;;;;13.50;7.47;;;15.80;99.90;;;;;;5094114;28;20292;-70
2022/07/22 04:41:24;;;;;;;10.30;7.00;;;15.80;99.90;;;;;;5095218;28;20174;-70
2022/07/22 04:43:49;;;;;;;12.52;7.00;;;15.80;99.90;;;;;;5094020;28;20196;-70
2022/07/22 04:46:15;;;;;;;12.40;6.70;;;15.90;99.90;;;;;;5094072;28;20173;-70
2022/07/22 04:48:41;;;;;;;9.63;6.53;;;15.90;99.90;;;;;;5095507;28;20574;-70
2022/07/22 04:51:06;;;;;;;9.90;6.75;;;15.90;99.90;;;;;;5095261;28;20184;-70
2022/07/22 04:53:32;;;;;;;8.63;5.95;;;15.90;99.90;;;;;;5094853;28;20173;-70
2022/07/22 04:55:58;;;;;;;16.55;7.45;;;15.90;99.90;;;;;;5093692;28;20204;-70
2022/07/22 04:58:24;;;;;;;10.45;6.30;;;15.90;99.90;;;;;;5093634;28;20197;-71
2022/07/22 05:00:50;;;;;;;8.02;5.25;;;15.90;99.90;;;;;;5094805;28;20554;-70
2022/07/22 05:03:15;;;;;;;8.07;5.60;;;15.90;99.90;;;;;;5093558;28;20244;-70
2022/07/22 05:05:41;;;;;;;9.25;5.75;;;16.00;99.90;;;;;;5095049;28;20180;-70
2022/07/22 05:08:07;;;;;;;13.00;6.60;;;16.00;99.90;;;;;;5094483;28;20260;-70
2022/07/22 05:10:33;;;;;;;12.07;6.97;;;16.00;99.90;;;;;;5094730;28;20257;-70
2022/07/22 05:12:59;;;;;;;11.27;6.18;;;16.00;99.90;;;;;;5094540;28;20204;-70
2022/07/22 05:15:25;;;;;;;11.52;5.80;;;16.00;99.90;;;;;;5094534;28;20173;-70
2022/07/22 05:17:50;;;;;;;9.80;4.95;;;16.00;99.90;;;;;;5094503;28;20735;-70
2022/07/22 05:20:16;;;;;;;11.18;5.38;;;16.10;99.90;;;;;;5093219;28;20169;-70
2022/07/22 05:22:43;;;;;;;10.80;5.30;;;16.10;99.90;;;;;;5094293;28;20189;-70
2022/07/22 05:25:09;;;;;;;13.73;5.10;;;16.00;99.90;;;;;;5094355;28;20543;-70
2022/07/22 05:27:35;;;;;;;11.93;5.75;;;16.10;99.90;;;;;;5094659;28;20173;-70
2022/07/22 05:30:01;;;;;;;7.65;4.90;;;16.00;99.90;;;;;;5094821;28;20177;-70
2022/07/22 05:32:26;;;;;;;9.48;4.82;;;16.00;99.90;;;;;;5094352;28;20689;-69
2022/07/22 05:34:52;;;;;;;8.13;4.57;;;16.00;99.90;;;;;;5094139;28;20188;-70
2022/07/22 05:37:18;;;;;;;9.52;4.85;;;16.10;99.90;;;;;;5094149;28;20205;-70
2022/07/22 05:39:44;;;;;;;9.77;5.35;;;16.20;99.90;;;;;;5094178;28;20250;-70
2022/07/22 05:42:10;;;;;;;7.18;5.32;;;16.20;99.90;;;;;;5094056;28;20189;-70
2022/07/22 05:44:35;;;;;;;11.45;5.57;;;16.10;99.90;;;;;;5094132;28;20181;-70
2022/07/22 05:47:01;;;;;;;13.82;5.28;;;16.10;99.90;;;;;;5094583;28;20173;-70
2022/07/22 05:49:27;;;;;;;11.00;5.32;;;16.10;99.90;;;;;;5093335;28;20540;-70
2022/07/22 05:51:53;;;;;;;12.35;5.88;;;16.20;99.90;;;;;;5093582;28;20654;-69
2022/07/22 05:54:19;;;;;;;7.35;5.05;;;16.20;99.90;;;;;;5093846;28;20177;-70
2022/07/22 05:56:45;;;;;;;10.30;5.68;;;16.20;99.90;;;;;;5093816;28;20176;-70
2022/07/22 05:59:11;;;;;;;11.10;5.03;;;16.20;99.90;;;;;;5093810;28;20169;-70
2022/07/22 06:01:37;;;;;;;8.35;4.78;;;16.20;99.90;;;;;;5092409;28;20188;-69
2022/07/22 06:04:03;;;;;;;9.35;5.38;;;16.20;99.90;;;;;;5094437;28;20165;-70
2022/07/22 06:06:28;;;;;;;10.38;5.20;;;16.30;99.90;;;;;;5094145;28;20630;-70
2022/07/22 06:08:54;;;;;;;10.60;5.60;;;16.30;99.90;;;;;;5092580;28;20185;-69
2022/07/22 06:11:21;;;;;;;9.05;5.32;;;16.40;99.90;;;;;;5093823;28;20633;-70
2022/07/22 06:13:48;;;;;;;8.55;5.70;;;16.40;99.90;;;;;;5092391;28;20189;-71
2022/07/22 06:16:13;;;;;;;11.75;5.18;;;16.40;99.90;;;;;;5093741;28;20169;-70
2022/07/22 06:18:39;;;;;;;8.20;5.93;;;16.40;99.90;;;;;;5092222;28;20215;-70
2022/07/22 06:21:07;;;;;;;10.40;5.57;;;16.40;99.90;;;;;;5093927;28;20230;-70
2022/07/22 06:23:34;;;;;;;11.00;5.88;;;16.40;99.90;;;;;;5093392;28;20252;-70
2022/07/22 06:25:59;;;;;;;12.05;5.30;;;16.40;99.90;;;;;;5092479;28;20177;-70
2022/07/22 06:28:25;;;;;;;11.45;6.22;;;16.40;99.90;;;;;;5094020;28;20195;-70
2022/07/22 06:30:51;;;;;;;11.20;5.72;;;16.40;99.90;;;;;;5092289;28;20174;-70
2022/07/22 06:33:17;;;;;;;8.57;6.05;;;16.40;99.90;;;;;;5093506;28;20189;-70
2022/07/22 06:35:43;;;;;;;10.80;6.07;;;16.40;99.90;;;;;;5093697;28;20626;-70
2022/07/22 06:38:09;;;;;;;12.98;5.80;;;16.40;99.90;;;;;;5093391;28;20212;-70
2022/07/22 06:40:35;;;;;;;14.88;7.35;;;16.30;99.90;;;;;;5093698;28;20161;-70
2022/07/22 06:43:00;;;;;;;18.13;8.50;;;16.20;99.90;;;;;;5093556;28;20185;-70
2022/07/22 06:45:26;;;;;;;9.93;4.90;;;16.20;99.90;;;;;;5093573;28;20180;-70
2022/07/22 06:47:52;;;;;;;8.57;4.65;;;16.20;99.90;;;;;;5093977;28;20164;-70
2022/07/22 06:50:18;;;;;;;8.57;4.68;;;16.20;99.90;;;;;;5093746;28;20165;-70
2022/07/22 06:52:44;;;;;;;11.20;4.30;;;16.30;99.90;;;;;;5091649;28;20200;-69
2022/07/22 06:55:10;;;;;;;6.82;3.90;;;16.20;99.90;;;;;;5093256;28;20260;-70
2022/07/22 06:57:36;;;;;;;7.20;3.70;;;16.20;99.90;;;;;;5093236;28;20201;-71
2022/07/22 07:00:06;;;;;;;6.80;3.80;;;16.30;99.90;;;;;;5095516;28;20584;-70
2022/07/22 07:02:32;;;;;;;13.65;4.95;;;16.30;99.90;;;;;;5098521;28;20203;-66
2022/07/22 07:04:58;;;;;;;9.73;4.65;;;16.20;99.90;;;;;;5097690;28;20252;-67
2022/07/22 07:07:23;;;;;;;9.88;4.72;;;16.30;99.90;;;;;;5099213;28;20181;-67
2022/07/22 07:09:49;;;;;;;11.63;5.13;;;16.20;99.90;;;;;;5097195;28;20173;-67
2022/07/22 07:12:15;;;;;;;13.05;5.25;;;16.10;99.90;;;;;;5095937;28;20678;-72
2022/07/22 07:14:41;;;;;;;15.95;5.63;;;16.10;99.90;;;;;;5097590;28;20181;-72
2022/07/22 07:17:08;;;;;;;15.98;5.82;;;16.10;99.90;;;;;;5098190;28;20228;-70
2022/07/22 07:19:34;;;;;;;8.73;4.55;;;16.00;99.90;;;;;;5097530;28;20748;-72
2022/07/22 07:22:00;;;;;;;14.05;5.75;;;16.00;99.90;;;;;;5096641;28;20189;-71
2022/07/22 07:24:27;;;;;;;9.77;5.70;;;16.10;99.90;;;;;;5097138;28;20184;-71
2022/07/22 07:26:53;;;;;;;14.95;5.55;;;16.10;99.90;;;;;;5097218;28;20242;-71
2022/07/22 07:29:18;;;;;;;11.27;5.93;;;16.00;99.90;;;;;;5097685;28;20181;-67
2022/07/22 07:31:44;;;;;;;11.55;6.30;;;16.10;99.90;;;;;;5097401;28;20193;-70
2022/07/22 07:34:10;;;;;;;13.23;5.10;;;16.10;99.90;;;;;;5096713;28;20161;-69
2022/07/22 07:36:35;;;;;;;10.80;5.18;;;16.10;99.90;;;;;;5097977;28;20176;-68
2022/07/22 07:39:01;;;;;;;11.15;5.07;;;16.10;99.90;;;;;;5097968;28;20289;-68
2022/07/22 07:41:27;;;;;;;12.95;5.80;;;16.10;99.90;;;;;;5097023;28;20170;-69
2022/07/22 07:43:53;;;;;;;6.93;4.47;;;16.10;99.90;;;;;;5096450;28;20518;-69
2022/07/22 07:46:19;;;;;;;9.50;5.40;;;16.20;99.90;;;;;;5096598;28;20180;-68
2022/07/22 07:48:45;;;;;;;12.10;6.63;;;16.30;99.90;;;;;;5096347;28;20199;-68
2022/07/22 07:51:11;;;;;;;11.57;5.68;;;16.30;99.90;;;;;;5096464;28;20582;-69
2022/07/22 07:53:36;;;;;;;14.70;5.55;;;16.20;99.90;;;;;;5096094;28;20261;-68
2022/07/22 07:56:02;;;;;;;10.57;6.15;;;16.30;99.90;;;;;;5096630;28;20222;-68
2022/07/22 07:58:28;;;;;;;7.43;5.57;;;16.40;99.90;;;;;;5096362;28;20193;-68
2022/07/22 08:00:54;;;;;;;9.65;6.18;;;16.50;99.90;;;;;;5097148;28;20174;-71
2022/07/22 08:03:19;;;;;;;11.77;5.63;;;16.50;99.90;;;;;;5096373;28;20185;-71
2022/07/22 08:05:45;;;;;;;13.93;6.95;;;16.60;99.90;;;;;;5097686;28;20146;-67
2022/07/22 08:08:11;;;;;;;11.50;6.32;;;16.60;99.90;;;;;;5096587;28;20184;-70
2022/07/22 08:10:37;;;;;;;8.18;5.88;;;16.80;99.90;;;;;;5096146;28;20203;-71
2022/07/22 08:13:04;;;;;;;10.48;6.40;;;16.80;99.90;;;;;;5095832;28;20212;-71
2022/07/22 08:15:30;;;;;;;10.52;7.50;;;16.90;99.90;;;;;;5096458;28;20169;-71
2022/07/22 08:17:57;;;;;;;12.93;7.65;;;16.90;99.90;;;;;;5097194;28;20209;-71
2022/07/22 08:20:24;;;;;;;11.95;7.13;;;17.00;99.90;;;;;;5096528;28;20197;-72
2022/07/22 08:22:51;;;;;;;16.20;8.32;;;17.00;99.90;;;;;;5096683;28;20258;-72
2022/07/22 08:25:17;;;;;;;13.75;7.45;;;17.20;99.90;;;;;;5096018;28;20176;-68
2022/07/22 08:27:43;;;;;;;11.50;8.10;;;17.30;99.90;;;;;;5095642;28;20256;-69
2022/07/22 08:30:09;;;;;;;12.45;7.53;;;17.30;99.90;;;;;;5096100;28;20627;-69
2022/07/22 08:32:35;;;;;;;14.43;8.38;;;17.40;99.90;;;;;;5095620;28;20284;-69
2022/07/22 08:35:01;;;;;;;14.10;8.48;;;17.40;99.90;;;;;;5094151;28;20260;-69
2022/07/22 08:37:27;;;;;;;17.08;9.23;;;17.50;99.90;;;;;;5095101;28;20662;-69
2022/07/22 08:39:53;;;;;;;13.18;8.00;;;17.40;99.90;;;;;;5095539;28;20190;-69
2022/07/22 08:42:21;;;;;;;13.77;7.68;;;17.40;99.90;;;;;;5093883;28;20228;-69
2022/07/22 08:44:48;;;;;;;12.07;8.88;;;17.50;99.90;;;;;;5095304;28;20173;-69
2022/07/22 08:47:13;;;;;;;12.85;7.85;;;17.50;99.90;;;;;;5096337;28;20163;-69
2022/07/22 08:49:39;;;;;;;11.63;7.90;;;17.50;99.90;;;;;;5095454;28;20181;-69
2022/07/22 08:52:05;;;;;;;11.73;7.80;;;17.60;99.90;;;;;;5095335;28;20197;-69
2022/07/22 08:54:31;;;;;;;11.40;7.30;;;17.60;99.90;;;;;;5094845;28;20255;-69
2022/07/22 08:56:57;;;;;;;11.57;7.53;;;17.60;99.90;;;;;;5094870;28;20246;-69
2022/07/22 08:59:22;;;;;;;11.93;7.28;;;17.70;99.90;;;;;;5094920;28;20172;-68
2022/07/22 09:02:02;;;;;;;11.07;7.53;;;17.60;99.90;;;;;;5093545;28;20228;-68
2022/07/22 09:04:29;;;;;;;9.98;7.15;;;17.70;99.90;;;;;;5093603;28;20180;-68
2022/07/22 09:06:54;;;;;;;12.57;8.10;;;17.70;99.90;;;;;;5095341;28;20157;-69
2022/07/22 09:09:32;;;;;;;14.02;7.63;;;17.70;99.90;;;;;;5093248;28;20226;-68
2022/07/22 09:12:08;;;;;;;13.88;7.85;;;17.80;99.90;;;;;;5095459;28;20355;-69
2022/07/22 09:14:48;;;;;;;10.75;7.00;;;17.80;99.90;;;;;;5093985;28;20189;-68
2022/07/22 09:17:35;;;;;;;13.52;6.97;;;17.80;99.90;;;;;;5094798;28;20211;-69
2022/07/22 09:20:15;;;;;;;15.43;7.05;;;17.80;99.90;;;;;;5094906;28;20158;-69
2022/07/22 09:22:47;;;;;;;14.93;7.55;;;17.80;99.90;;;;;;5093791;28;20185;-69
2022/07/22 09:25:27;;;;;;;10.10;6.65;;;17.80;99.90;;;;;;5094863;28;20518;-69
2022/07/22 09:28:08;;;;;;;10.57;7.10;;;17.80;99.90;;;;;;5094496;28;20569;-69
2022/07/22 09:30:46;;;;;;;11.90;7.85;;;17.70;99.90;;;;;;5093272;28;20173;-69
2022/07/22 09:33:12;;;;;;;11.15;7.20;;;17.60;99.90;;;;;;5094425;28;20746;-68
2022/07/22 09:35:39;;;;;;;15.10;8.30;;;17.50;99.90;;;;;;5094547;28;20244;-68
2022/07/22 09:38:10;;;;;;;11.50;7.80;;;17.40;99.90;;;;;;5092748;28;20196;-68
2022/07/22 09:40:45;;;;;;;11.95;8.13;;;17.40;99.90;;;;;;5094545;28;20154;-68
2022/07/22 09:43:16;;;;;;;12.48;7.50;;;17.50;99.90;;;;;;5094125;28;20700;-68
2022/07/22 09:45:47;;;;;;;9.90;6.75;;;17.60;99.90;;;;;;5094272;28;20162;-68
2022/07/22 09:48:14;;;;;;;12.60;8.20;;;17.60;99.90;;;;;;5094159;28;20206;-69
2022/07/22 09:50:40;;;;;;;10.90;7.22;;;17.60;99.90;;;;;;5094168;28;20180;-68
2022/07/22 09:53:05;;;;;;;11.23;7.68;;;17.50;99.90;;;;;;5093673;28;20200;-69
2022/07/22 09:55:33;;;;;;;13.38;7.82;;;17.50;99.90;;;;;;5094576;28;20169;-68
2022/07/22 09:57:59;;;;;;;12.68;7.45;;;17.40;99.90;;;;;;5093966;28;20207;-68
2022/07/22 10:00:27;;;;;;;12.20;7.78;;;17.30;99.90;;;;;;5093923;28;20185;-68
2022/07/22 10:02:58;;;;;;;14.25;7.30;;;17.20;99.90;;;;;;5093967;28;20212;-68
2022/07/22 10:05:36;;;;;;;7.93;6.15;;;17.30;99.90;;;;;;5094766;28;20517;-68
2022/07/22 10:08:03;;;;;;;10.38;7.25;;;17.40;99.90;;;;;;5092511;28;20225;-68
2022/07/22 10:10:31;;;;;;;12.00;7.57;;;17.40;99.90;;;;;;5092574;28;20268;-68
2022/07/22 10:12:58;;;;;;;9.40;6.57;;;17.30;99.90;;;;;;5093740;28;20193;-68
2022/07/22 10:15:26;;;;;;;10.38;7.38;;;17.40;99.90;;;;;;5093815;28;20176;-68
2022/07/22 10:17:56;;;;;;;10.95;7.60;;;17.40;99.90;;;;;;5093411;28;20203;-68
2022/07/22 10:20:24;;;;;;;10.95;7.28;;;17.50;99.90;;;;;;5092395;28;20637;-68
2022/07/22 10:23:02;;;;;;;13.38;6.28;;;17.60;99.90;;;;;;5092099;28;20292;-68
2022/07/22 10:25:48;;;;;;;8.43;5.80;;;17.70;99.90;;;;;;5094148;28;20163;-68
2022/07/22 10:28:25;;;;;;;8.68;5.25;;;17.80;99.90;;;;;;5092360;28;20173;-68
2022/07/22 10:30:50;;;;;;;9.45;5.82;;;18.00;99.90;;;;;;5093503;28;20639;-68
2022/07/22 10:33:30;;;;;;;10.32;6.07;;;18.10;99.90;;;;;;5093672;28;20641;-68
2022/07/22 10:36:00;;;;;;;6.45;4.50;;;18.00;99.90;;;;;;5097496;28;20233;-68
2022/07/22 10:38:28;;;;;;;10.88;5.45;;;18.10;99.90;;;;;;5097503;28;20204;-68
2022/07/22 10:41:32;;;;;;;7.93;5.43;;;18.10;99.90;;;;;;5097596;28;20244;-68
2022/07/22 10:43:58;;;;;;;10.40;6.40;;;18.00;99.90;;;;;;5098197;28;20507;-68
2022/07/22 10:46:49;;;;;;;11.88;7.43;;;18.00;99.90;;;;;;5098070;28;20160;-68
2022/07/22 10:49:16;;;;;;;8.02;6.47;;;18.00;99.90;;;;;;5097806;28;20157;-68
2022/07/22 10:52:08;;;;;;;7.90;5.70;;;18.00;99.90;;;;;;5097629;28;20562;-68
2022/07/22 10:55:13;;;;;;;7.43;5.88;;;18.10;99.90;;;;;;5097124;28;20267;-68
2022/07/22 10:57:38;;;;;;;9.65;6.20;;;18.30;99.90;;;;;;5097009;28;20205;-68
2022/07/22 11:00:05;;;;;;;7.88;6.15;;;18.40;99.90;;;;;;5097202;28;20642;-68
2022/07/22 11:02:32;;;;;;;8.85;6.57;;;18.30;99.90;;;;;;5097229;28;20234;-68
2022/07/22 11:04:58;;;;;;;8.82;6.07;;;18.30;99.90;;;;;;5095889;28;20180;-68
2022/07/22 11:07:24;;;;;;;8.13;5.78;;;18.30;99.90;;;;;;5097118;28;20177;-68
2022/07/22 11:09:50;;;;;;;8.50;6.85;;;18.40;99.90;;;;;;5095555;28;20173;-68
2022/07/22 11:12:15;;;;;;;9.45;5.28;;;18.50;99.90;;;;;;5096978;28;20197;-68
2022/07/22 11:14:41;;;;;;;6.90;4.82;;;18.50;99.90;;;;;;5097344;28;20173;-68
2022/07/22 11:17:13;;;;;;;9.90;5.20;;;18.50;99.90;;;;;;5096925;28;20177;-68
2022/07/22 11:19:39;;;;;;;6.45;4.32;;;18.60;99.90;;;;;;5095628;28;20196;-68
2022/07/22 11:22:11;;;;;;;7.53;5.22;;;18.70;99.90;;;;;;5096692;28;20181;-68
2022/07/22 11:24:38;;;;;;;7.88;4.82;;;18.80;99.90;;;;;;5096505;28;20272;-68
2022/07/22 11:27:09;;;;;;;6.45;4.70;;;18.70;99.90;;;;;;5096613;28;20658;-68
2022/07/22 11:29:39;;;;;;;6.55;5.28;;;18.70;99.90;;;;;;5097394;28;20164;-68
2022/07/22 11:32:07;;;;;;;8.88;5.05;;;18.80;99.90;;;;;;5097022;28;20189;-68
2022/07/22 11:34:42;;;;;;;9.52;4.97;;;18.90;99.90;;;;;;5096597;28;20173;-68
2022/07/22 11:37:08;;;;;;;7.72;5.03;;;18.90;99.90;;;;;;5095352;28;20590;-68
2022/07/22 11:39:35;;;;;;;10.45;5.20;;;19.00;99.90;;;;;;5096303;28;20251;-68
2022/07/22 11:42:01;;;;;;;9.95;6.07;;;19.00;99.90;;;;;;5095144;28;20192;-68
2022/07/22 11:44:29;;;;;;;11.57;7.20;;;19.00;99.90;;;;;;5096937;28;20502;-68
2022/07/22 11:46:58;;;;;;;11.48;6.90;;;19.00;99.90;;;;;;5095322;28;20170;-68
2022/07/22 11:49:27;;;;;;;9.48;6.38;;;19.00;99.90;;;;;;5096825;28;20169;-68
2022/07/22 11:51:52;;;;;;;7.82;5.53;;;19.00;99.90;;;;;;5096215;28;20189;-68
2022/07/22 11:54:19;;;;;;;9.77;6.95;;;19.00;99.90;;;;;;5096060;28;20653;-68
2022/07/22 11:56:45;;;;;;;8.50;6.07;;;19.10;99.90;;;;;;5096210;28;20173;-68
2022/07/22 11:59:17;;;;;;;9.32;6.25;;;19.20;99.90;;;;;;5096075;28;20196;-69
2022/07/22 12:01:44;;;;;;;9.23;6.93;;;19.30;99.90;;;;;;5096131;28;20193;-69
2022/07/22 12:04:16;;;;;;;9.18;6.32;;;19.30;99.90;;;;;;5096133;28;20177;-68
2022/07/22 12:06:44;;;;;;;11.13;7.07;;;19.40;99.90;;;;;;5096051;28;20149;-68
2022/07/22 12:09:14;;;;;;;10.60;5.90;;;19.40;99.90;;;;;;5095897;28;20176;-69
2022/07/22 12:11:44;;;;;;;7.00;5.82;;;19.40;99.90;;;;;;5095944;28;20249;-68
2022/07/22 12:14:13;;;;;;;9.63;6.30;;;19.50;99.90;;;;;;5095814;28;20181;-68
2022/07/22 12:16:40;;;;;;;9.82;6.63;;;19.50;99.90;;;;;;5095882;28;20242;-69
2022/07/22 12:19:11;;;;;;;9.45;6.18;;;19.40;99.90;;;;;;5095729;28;20205;-69
2022/07/22 12:22:00;;;;;;;9.32;6.82;;;19.40;99.90;;;;;;5094421;28;20536;-69
2022/07/22 12:24:41;;;;;;;12.95;7.75;;;19.50;99.90;;;;;;5094056;28;20181;-69
2022/07/22 12:27:09;;;;;;;9.77;6.65;;;19.50;99.90;;;;;;5096253;28;20221;-70
2022/07/22 12:29:37;;;;;;;10.50;7.10;;;19.50;99.90;;;;;;5095859;28;20206;-68
2022/07/22 12:32:07;;;;;;;10.43;7.07;;;19.50;99.90;;;;;;5094234;28;20197;-68
2022/07/22 12:34:43;;;;;;;12.82;7.93;;;19.60;99.90;;;;;;5096086;28;20642;-72
2022/07/22 12:37:21;;;;;;;10.48;6.85;;;19.50;99.90;;;;;;5094341;28;20184;-72
2022/07/22 12:39:57;;;;;;;10.70;6.88;;;19.50;99.90;;;;;;5096490;28;20198;-67
2022/07/22 12:42:29;;;;;;;10.50;7.13;;;19.70;99.90;;;;;;5095565;28;20275;-68